Terminal Aerodrome Forecast
Issued by NWS

Home | Current Version | Previous Version | Text Only | Print | Product List | Glossary On
Versions: 1 2 3 4 5 6 7 8 9 10 11 12 13
328
FTUS44 KLZK 142027 AAA
TAFADF
TAF AMD
KADF 142027Z 1420/1518 17005KT P6SM VCSH SCT015 OVC030
      TEMPO 1422/1502 BKN015
     FM150200 VRB03KT P6SM VCSH SCT007 OVC015
      TEMPO 1502/1506 5SM -SHRA BR OVC007
     FM150600 VRB03KT 4SM -SHRA BR VCTS OVC007CB
      TEMPO 1510/1514 2SM SHRA BR OVC005
     FM151500 02005KT P6SM VCSH SCT007 OVC012=

USA.gov is the U.S. government's official web portal to all federal, state and local government web resources and services.